createdAt,value
2023-03-22T00:00:30.278Z,6.20
2023-03-22T00:04:34.456Z,6.50
2023-03-22T00:08:37.649Z,6.07
2023-03-22T00:12:40.489Z,5.90
2023-03-22T00:16:43.363Z,6.20
2023-03-22T00:21:11.743Z,5.45
2023-03-22T00:25:14.518Z,5.80
2023-03-22T00:29:17.380Z,5.40
2023-03-22T00:33:20.328Z,5.30
2023-03-22T00:37:24.501Z,7.05
2023-03-22T00:41:27.402Z,5.97
2023-03-22T00:45:30.172Z,5.40
2023-03-22T00:49:33.090Z,5.22
2023-03-22T00:53:37.377Z,5.25
2023-03-22T00:57:40.566Z,4.45
2023-03-22T01:01:44.012Z,4.65
2023-03-22T01:05:47.197Z,4.82
2023-03-22T01:09:53.165Z,5.10
2023-03-22T01:13:55.998Z,4.55
2023-03-22T01:17:59.274Z,4.65
2023-03-22T01:22:02.764Z,4.90
2023-03-22T01:26:07.880Z,4.40
2023-03-22T01:30:11.604Z,4.50
2023-03-22T01:34:14.495Z,4.63
2023-03-22T01:38:17.538Z,4.57
2023-03-22T01:42:34.354Z,4.57
2023-03-22T01:46:39.805Z,4.93
2023-03-22T01:50:46.824Z,5.18
2023-03-22T01:54:53.727Z,4.75
2023-03-22T01:59:13.693Z,4.78
2023-03-22T02:03:44.456Z,5.53
2023-03-22T02:07:50.144Z,5.82
2023-03-22T02:12:04.900Z,5.40
2023-03-22T02:16:24.926Z,5.05
2023-03-22T02:21:05.644Z,4.68
2023-03-22T02:25:48.223Z,4.97
2023-03-22T02:30:01.241Z,5.63
2023-03-22T02:34:39.394Z,5.00
2023-03-22T02:39:21.356Z,5.03
2023-03-22T02:43:38.316Z,6.72
2023-03-22T02:47:44.772Z,6.63
2023-03-22T02:51:52.108Z,5.70
2023-03-22T02:56:01.631Z,6.03
2023-03-22T03:00:12.429Z,6.38
2023-03-22T03:04:18.905Z,5.97
2023-03-22T03:12:28.259Z,5.03
2023-03-22T03:16:38.050Z,4.70
2023-03-22T03:20:52.483Z,4.70
2023-03-22T03:25:03.630Z,4.80
2023-03-22T03:29:12.871Z,5.18
2023-03-22T03:33:20.459Z,4.35
2023-03-22T03:37:28.696Z,4.90
2023-03-22T03:41:32.864Z,5.40
2023-03-22T03:45:37.257Z,5.55
2023-03-22T03:49:42.003Z,12.25
2023-03-22T03:53:44.871Z,12.73
2023-03-22T03:57:48.039Z,10.05
2023-03-22T04:01:52.385Z,10.32
2023-03-22T04:06:08.810Z,16.20
2023-03-22T04:10:14.345Z,33.80
2023-03-22T04:14:17.329Z,20.45
2023-03-22T04:18:24.219Z,7.75
2023-03-22T04:22:29.292Z,5.25
2023-03-22T04:26:32.864Z,19.80
2023-03-22T04:30:51.005Z,15.15
2023-03-22T04:35:20.455Z,33.75
2023-03-22T04:39:24.709Z,9.02
2023-03-22T04:43:35.837Z,4.80
2023-03-22T04:47:41.737Z,4.75
2023-03-22T04:51:44.956Z,4.47
2023-03-22T04:55:59.309Z,4.55
2023-03-22T05:00:06.888Z,4.85
2023-03-22T05:04:09.814Z,4.53
2023-03-22T05:08:14.367Z,5.05
2023-03-22T05:12:19.977Z,4.78
2023-03-22T05:16:26.614Z,4.57
2023-03-22T05:20:29.589Z,3.88
2023-03-22T05:24:52.395Z,4.22
2023-03-22T05:29:03.363Z,4.22
2023-03-22T05:33:21.785Z,3.97
2023-03-22T05:37:27.633Z,6.32
2023-03-22T05:41:36.241Z,6.10
2023-03-22T05:45:41.271Z,4.28
2023-03-22T05:50:00.046Z,3.60
2023-03-22T05:54:05.166Z,4.13
2023-03-22T05:58:18.947Z,3.60
2023-03-22T06:02:24.867Z,3.53
2023-03-22T06:06:28.517Z,3.72
2023-03-22T06:10:43.971Z,4.32
2023-03-22T06:14:46.956Z,3.55
2023-03-22T06:19:00.510Z,3.35
2023-03-22T06:23:03.631Z,3.40
2023-03-22T06:27:06.590Z,3.60
2023-03-22T06:31:11.178Z,3.03
2023-03-22T06:35:32.532Z,2.58
2023-03-22T06:39:36.011Z,3.72
2023-03-22T06:43:39.329Z,9.10
2023-03-22T06:47:55.769Z,17.58
2023-03-22T06:52:14.760Z,9.15
2023-03-22T06:56:17.766Z,7.18
2023-03-22T07:00:25.503Z,3.65
2023-03-22T07:04:29.145Z,5.07
2023-03-22T07:08:34.059Z,2.53
2023-03-22T07:12:37.445Z,2.58
2023-03-22T07:16:46.242Z,2.53
2023-03-22T07:20:49.107Z,2.45
2023-03-22T07:24:57.646Z,2.85
2023-03-22T07:29:03.541Z,2.63
2023-03-22T07:33:11.627Z,4.40
2023-03-22T07:37:16.277Z,4.90
2023-03-22T07:41:23.931Z,3.85
2023-03-22T07:45:31.364Z,3.40
2023-03-22T07:49:53.010Z,2.95
2023-03-22T07:54:01.850Z,3.03
2023-03-22T07:58:07.747Z,2.58
2023-03-22T08:02:10.836Z,3.72
2023-03-22T08:06:22.033Z,3.33
2023-03-22T08:10:25.218Z,3.28
2023-03-22T08:14:36.330Z,3.33
2023-03-22T08:18:44.263Z,3.00
2023-03-22T08:22:48.334Z,2.63
2023-03-22T08:26:57.605Z,2.70
2023-03-22T08:31:20.124Z,2.65
2023-03-22T08:35:23.717Z,2.30
2023-03-22T08:39:27.264Z,2.30
2023-03-22T08:43:43.850Z,2.00
2023-03-22T08:47:48.527Z,1.90
2023-03-22T08:51:54.149Z,1.85
2023-03-22T08:56:17.474Z,1.95
2023-03-22T09:00:45.939Z,2.22
2023-03-22T09:05:13.640Z,1.88
2023-03-22T09:09:17.975Z,2.00
2023-03-22T09:13:23.860Z,2.20
2023-03-22T09:17:31.783Z,2.20
2023-03-22T09:21:36.347Z,2.20
2023-03-22T09:25:47.128Z,2.40
2023-03-22T09:29:53.265Z,2.10
2023-03-22T09:33:56.221Z,2.80
2023-03-22T09:38:38.758Z,2.50
2023-03-22T09:42:46.116Z,2.40
2023-03-22T09:46:55.060Z,2.30
2023-03-22T09:50:57.880Z,2.30
2023-03-22T09:55:00.774Z,2.50
2023-03-22T09:59:12.875Z,2.67
2023-03-22T10:03:24.686Z,2.65
2023-03-22T10:11:45.620Z,2.88
2023-03-22T10:15:52.372Z,3.33
2023-03-22T10:19:58.952Z,3.13
2023-03-22T10:24:06.177Z,2.67
2023-03-22T10:28:17.501Z,2.00
2023-03-22T10:32:28.367Z,2.10
2023-03-22T10:36:34.862Z,2.10
2023-03-22T10:40:40.829Z,2.42
2023-03-22T10:44:49.344Z,2.13
2023-03-22T10:48:59.011Z,2.28
2023-03-22T10:53:06.320Z,2.05
2023-03-22T10:57:09.149Z,2.00
2023-03-22T11:05:25.824Z,2.20
2023-03-22T11:09:28.674Z,2.45
2023-03-22T11:13:35.308Z,2.33
2023-03-22T11:17:38.429Z,2.10
2023-03-22T11:21:43.373Z,2.60
2023-03-22T11:25:48.760Z,2.50
2023-03-22T11:29:53.332Z,2.60
2023-03-22T11:33:57.918Z,2.72
2023-03-22T11:38:02.646Z,2.30
2023-03-22T11:42:07.306Z,2.33
2023-03-22T11:46:12.248Z,2.33
2023-03-22T11:50:27.625Z,2.40
2023-03-22T11:54:36.590Z,2.35
2023-03-22T11:59:04.163Z,2.78
2023-03-22T12:03:13.818Z,2.20
2023-03-22T12:07:19.438Z,2.20
2023-03-22T12:11:28.432Z,1.90
2023-03-22T12:15:36.187Z,1.60
2023-03-22T12:19:56.348Z,2.10
2023-03-22T12:24:02.799Z,1.90
2023-03-22T12:28:10.778Z,1.60
2023-03-22T12:32:18.787Z,1.75
2023-03-22T12:36:24.661Z,1.80
2023-03-22T12:40:30.233Z,1.73
2023-03-22T12:44:39.198Z,1.55
2023-03-22T12:48:46.808Z,1.77
2023-03-22T12:52:51.346Z,1.67
2023-03-22T12:56:56.486Z,1.58
2023-03-22T13:01:13.521Z,1.80
2023-03-22T13:05:19.195Z,1.52
2023-03-22T13:09:37.042Z,1.20
2023-03-22T13:13:46.049Z,1.45
2023-03-22T13:17:50.418Z,1.48
2023-03-22T13:22:14.836Z,1.65
2023-03-22T13:26:19.978Z,1.70
2023-03-22T13:30:28.898Z,1.42
2023-03-22T13:34:38.713Z,1.30
2023-03-22T13:38:43.556Z,1.15
2023-03-22T13:42:46.503Z,1.30
2023-03-22T13:46:53.584Z,1.08
2023-03-22T13:50:59.116Z,0.88
2023-03-22T13:55:01.926Z,0.95
2023-03-22T13:59:05.297Z,1.00
2023-03-22T14:03:15.734Z,1.13
2023-03-22T14:07:25.384Z,0.90
2023-03-22T14:11:33.646Z,1.40
2023-03-22T14:15:41.389Z,1.23
2023-03-22T14:19:44.414Z,1.27
